createdAt,value
2019-05-19T00:01:45.998Z,13.80
2019-05-19T00:04:50.766Z,13.70
2019-05-19T00:07:55.633Z,13.60
2019-05-19T00:11:00.533Z,13.60
2019-05-19T00:14:05.061Z,13.60
2019-05-19T00:17:09.524Z,13.50
2019-05-19T00:20:15.316Z,13.50
2019-05-19T00:23:19.842Z,13.50
2019-05-19T00:26:24.493Z,13.50
2019-05-19T00:29:29.003Z,13.40
2019-05-19T00:32:33.516Z,13.40
2019-05-19T00:35:38.092Z,13.40
2019-05-19T00:38:43.083Z,13.30
2019-05-19T00:41:47.632Z,13.30
2019-05-19T00:44:52.019Z,13.30
2019-05-19T00:47:56.687Z,13.30
2019-05-19T00:51:01.925Z,13.20
2019-05-19T00:54:06.454Z,13.20
2019-05-19T00:57:12.143Z,13.10
2019-05-19T01:00:17.296Z,13.10
2019-05-19T01:03:21.585Z,13.00
2019-05-19T01:06:27.395Z,13.00
2019-05-19T01:09:31.771Z,13.00
2019-05-19T01:12:36.307Z,12.90
2019-05-19T01:15:40.950Z,12.90
2019-05-19T01:18:46.107Z,12.90
2019-05-19T01:21:51.304Z,12.90
2019-05-19T01:24:56.275Z,12.90
2019-05-19T01:28:00.910Z,12.80
2019-05-19T01:31:05.284Z,12.80
2019-05-19T01:34:09.797Z,12.80
2019-05-19T01:37:15.003Z,12.70
2019-05-19T01:40:19.760Z,12.70
2019-05-19T01:43:24.921Z,12.70
2019-05-19T01:46:29.216Z,12.60
2019-05-19T01:49:33.495Z,12.60
2019-05-19T01:52:37.865Z,12.60
2019-05-19T01:55:42.166Z,12.50
2019-05-19T01:58:46.476Z,12.50
2019-05-19T02:01:50.853Z,12.50
2019-05-19T02:04:55.336Z,12.50
2019-05-19T02:07:59.659Z,12.40
2019-05-19T02:11:03.957Z,12.30
2019-05-19T02:14:08.232Z,12.30
2019-05-19T02:17:12.490Z,12.30
2019-05-19T02:20:31.653Z,12.30
2019-05-19T02:23:23.323Z,12.20
2019-05-19T02:26:27.674Z,12.20
2019-05-19T02:29:32.096Z,12.10
2019-05-19T02:32:36.450Z,12.10
2019-05-19T02:35:40.762Z,12.20
2019-05-19T02:38:45.149Z,12.10
2019-05-19T02:41:50.121Z,12.10
2019-05-19T02:44:56.386Z,12.10
2019-05-19T02:48:02.976Z,12.00
2019-05-19T02:51:08.420Z,12.00
2019-05-19T02:54:14.287Z,12.00
2019-05-19T02:57:18.920Z,12.00
2019-05-19T03:00:35.373Z,12.00
2019-05-19T03:03:42.345Z,12.00
2019-05-19T03:06:46.658Z,12.00
2019-05-19T03:09:51.566Z,11.90
2019-05-19T03:12:56.071Z,11.90
2019-05-19T03:16:00.428Z,11.80
2019-05-19T03:19:04.794Z,11.80
2019-05-19T03:22:09.157Z,11.90
2019-05-19T03:25:13.514Z,11.90
2019-05-19T03:28:19.860Z,11.90
2019-05-19T03:31:31.193Z,11.90
2019-05-19T03:34:35.574Z,11.90
2019-05-19T03:37:39.858Z,11.80
2019-05-19T03:40:44.209Z,11.90
2019-05-19T03:43:49.526Z,11.90
2019-05-19T03:46:53.808Z,11.90
2019-05-19T03:49:58.152Z,11.90
2019-05-19T03:53:03.075Z,11.80
2019-05-19T03:56:07.453Z,11.80
2019-05-19T03:59:11.745Z,11.80
2019-05-19T04:02:16.125Z,11.80
2019-05-19T04:05:20.395Z,11.80
2019-05-19T04:08:24.816Z,11.90
2019-05-19T04:11:29.123Z,11.90
2019-05-19T04:14:33.606Z,11.90
2019-05-19T04:17:37.938Z,12.00
2019-05-19T04:20:42.483Z,12.00
2019-05-19T04:23:46.837Z,12.10
2019-05-19T04:26:51.245Z,12.20
2019-05-19T04:29:55.534Z,12.30
2019-05-19T04:32:59.928Z,12.30
2019-05-19T04:36:04.221Z,12.40
2019-05-19T04:39:08.927Z,12.40
2019-05-19T04:42:13.286Z,12.50
2019-05-19T04:45:17.702Z,12.60
2019-05-19T04:48:22.002Z,12.60
2019-05-19T04:51:26.363Z,12.70
2019-05-19T04:54:30.733Z,12.80
2019-05-19T04:57:35.671Z,12.90
2019-05-19T05:00:40.027Z,12.90
2019-05-19T05:03:44.555Z,13.00
2019-05-19T05:06:48.906Z,13.10
2019-05-19T05:09:53.302Z,13.10
2019-05-19T05:12:57.763Z,13.30
2019-05-19T05:16:04.054Z,13.40
2019-05-19T05:19:08.180Z,13.50
2019-05-19T05:22:21.806Z,13.60
2019-05-19T05:25:19.583Z,13.70
2019-05-19T05:28:23.953Z,13.90
2019-05-19T05:31:28.258Z,13.90
2019-05-19T05:34:32.555Z,14.00
2019-05-19T05:37:37.012Z,14.10
2019-05-19T05:40:41.405Z,14.20
2019-05-19T05:43:45.774Z,14.30
2019-05-19T05:46:50.407Z,14.40
2019-05-19T05:49:54.765Z,14.40
2019-05-19T05:52:59.172Z,14.50
2019-05-19T05:56:03.553Z,14.50
2019-05-19T05:59:07.885Z,14.60
2019-05-19T06:02:12.252Z,14.70
2019-05-19T06:05:16.582Z,14.80
2019-05-19T06:08:20.950Z,14.90
2019-05-19T06:11:25.347Z,15.00
2019-05-19T06:14:29.679Z,15.10
2019-05-19T06:17:34.076Z,15.10
2019-05-19T06:20:38.469Z,15.20
2019-05-19T06:23:42.934Z,15.30
2019-05-19T06:26:47.339Z,15.40
2019-05-19T06:29:51.747Z,15.40
2019-05-19T06:32:57.550Z,15.50
2019-05-19T06:36:02.144Z,15.60
2019-05-19T06:39:07.619Z,15.60
2019-05-19T06:42:12.048Z,15.70
2019-05-19T06:45:18.775Z,15.80
2019-05-19T06:48:23.221Z,15.80
2019-05-19T06:51:27.612Z,15.90
2019-05-19T06:54:32.059Z,16.00
2019-05-19T06:57:36.497Z,16.00
2019-05-19T07:00:42.335Z,16.10
2019-05-19T07:03:46.647Z,16.10
2019-05-19T07:07:10.239Z,16.20
2019-05-19T07:10:14.841Z,16.30
2019-05-19T07:13:19.186Z,16.40
2019-05-19T07:16:23.508Z,16.40
2019-05-19T07:19:29.070Z,16.50
2019-05-19T07:22:37.498Z,16.50
2019-05-19T07:25:42.259Z,16.60
2019-05-19T07:28:47.292Z,16.70
2019-05-19T07:31:52.419Z,16.80
2019-05-19T07:34:57.300Z,16.80
2019-05-19T07:38:02.470Z,16.90
2019-05-19T07:41:08.151Z,17.00
2019-05-19T07:44:13.358Z,17.10
2019-05-19T07:47:20.726Z,17.10
2019-05-19T07:50:25.311Z,17.20
2019-05-19T07:53:42.261Z,17.30
2019-05-19T07:56:37.636Z,17.40
2019-05-19T07:59:43.229Z,17.50
2019-05-19T08:02:48.282Z,17.50
2019-05-19T08:05:52.980Z,17.70
2019-05-19T08:08:58.660Z,17.70
2019-05-19T08:12:06.776Z,17.80
2019-05-19T08:15:12.416Z,17.90
2019-05-19T08:18:17.879Z,18.00
2019-05-19T08:21:22.539Z,18.10
2019-05-19T08:24:26.816Z,18.20
2019-05-19T08:27:31.325Z,18.30
2019-05-19T08:30:35.914Z,18.40
2019-05-19T08:33:41.484Z,18.40
2019-05-19T08:36:46.012Z,18.50
2019-05-19T08:39:50.583Z,18.60
2019-05-19T08:42:54.951Z,18.60
2019-05-19T08:45:59.448Z,18.70
2019-05-19T08:49:03.881Z,18.70
2019-05-19T08:52:08.295Z,18.80
2019-05-19T08:55:12.931Z,18.90
2019-05-19T08:58:17.362Z,19.00
2019-05-19T09:01:25.013Z,19.00
2019-05-19T09:04:29.734Z,19.10
2019-05-19T09:07:34.286Z,19.20
2019-05-19T09:10:38.821Z,19.30
2019-05-19T09:13:43.307Z,19.40
2019-05-19T09:16:48.829Z,19.90
2019-05-19T09:19:55.691Z,20.20
2019-05-19T09:23:00.544Z,20.50
2019-05-19T09:26:05.446Z,20.70
2019-05-19T09:29:09.846Z,20.80
2019-05-19T09:32:14.210Z,21.00
2019-05-19T09:35:19.783Z,21.20
2019-05-19T09:38:24.185Z,21.30
2019-05-19T09:41:28.596Z,21.30
2019-05-19T09:44:32.958Z,21.50
2019-05-19T09:47:37.879Z,21.70
2019-05-19T09:50:42.327Z,21.80
2019-05-19T09:53:47.190Z,22.10
2019-05-19T09:56:51.702Z,22.30
2019-05-19T09:59:56.219Z,22.50
2019-05-19T10:03:00.607Z,22.70
2019-05-19T10:06:05.068Z,22.90
2019-05-19T10:09:13.610Z,23.00
2019-05-19T10:12:19.424Z,23.20
2019-05-19T10:15:23.939Z,23.30
2019-05-19T10:18:28.371Z,23.30
2019-05-19T10:21:32.811Z,23.30
2019-05-19T10:24:37.376Z,23.70
2019-05-19T10:27:41.779Z,23.80
2019-05-19T10:30:46.248Z,24.10
2019-05-19T10:33:50.685Z,24.10
2019-05-19T10:36:55.174Z,24.20
2019-05-19T10:39:59.563Z,24.30
2019-05-19T10:43:04.146Z,24.60
2019-05-19T10:46:08.491Z,24.70
2019-05-19T10:49:12.932Z,24.80
2019-05-19T10:52:17.359Z,25.10
2019-05-19T10:55:34.070Z,25.00
2019-05-19T10:58:27.944Z,25.30
2019-05-19T11:01:32.369Z,25.40
2019-05-19T11:04:36.883Z,25.60
2019-05-19T11:07:41.463Z,25.70
2019-05-19T11:10:48.033Z,25.80
2019-05-19T11:13:52.642Z,25.60
2019-05-19T11:16:59.976Z,25.30
2019-05-19T11:20:04.910Z,25.20
2019-05-19T11:23:09.359Z,25.10
2019-05-19T11:26:13.867Z,25.00
2019-05-19T11:29:18.451Z,25.00
2019-05-19T11:32:23.238Z,24.90
2019-05-19T11:35:27.674Z,24.90
2019-05-19T11:38:32.692Z,25.00
2019-05-19T11:41:37.058Z,25.00
2019-05-19T11:44:41.640Z,25.10
2019-05-19T11:47:46.080Z,24.90
2019-05-19T11:50:50.558Z,24.70
2019-05-19T11:53:54.989Z,24.50
2019-05-19T11:56:59.489Z,24.30
2019-05-19T12:00:03.933Z,24.10
2019-05-19T12:03:08.657Z,23.90
2019-05-19T12:06:13.440Z,23.70
2019-05-19T12:09:17.905Z,23.40
2019-05-19T12:12:22.583Z,23.30
2019-05-19T12:15:27.558Z,23.00
2019-05-19T12:18:32.213Z,22.80
2019-05-19T12:21:36.730Z,22.60
2019-05-19T12:24:41.326Z,22.30
2019-05-19T12:27:46.385Z,21.90
2019-05-19T12:30:51.542Z,21.50
2019-05-19T12:33:58.688Z,21.20
2019-05-19T12:37:03.420Z,21.00
2019-05-19T12:40:08.178Z,20.70
2019-05-19T12:43:13.704Z,20.50
2019-05-19T12:46:18.788Z,20.30
2019-05-19T12:49:23.853Z,20.10
2019-05-19T12:52:28.896Z,20.00
2019-05-19T12:55:33.991Z,19.80
2019-05-19T12:58:38.825Z,19.70
2019-05-19T13:01:43.565Z,19.70
2019-05-19T13:05:03.607Z,19.70
2019-05-19T13:07:54.486Z,19.60
2019-05-19T13:10:59.281Z,19.70
2019-05-19T13:14:05.982Z,19.80
2019-05-19T13:17:10.491Z,19.90
2019-05-19T13:20:14.997Z,20.00
2019-05-19T13:23:19.423Z,20.10
2019-05-19T13:26:24.456Z,20.10
2019-05-19T13:29:29.688Z,20.20
2019-05-19T13:32:34.147Z,20.30
2019-05-19T13:35:38.898Z,20.40
2019-05-19T13:38:43.396Z,20.60
2019-05-19T13:41:48.058Z,20.70
2019-05-19T13:44:53.585Z,20.90
2019-05-19T13:48:03.082Z,21.10
2019-05-19T13:51:07.725Z,21.20
2019-05-19T13:54:12.346Z,21.40
2019-05-19T13:57:16.862Z,21.60
2019-05-19T14:00:22.923Z,21.70
2019-05-19T14:03:33.033Z,21.80
2019-05-19T14:06:37.688Z,21.90
2019-05-19T14:09:45.085Z,22.00
2019-05-19T14:12:49.739Z,22.10
2019-05-19T14:15:54.157Z,22.10
2019-05-19T14:18:59.032Z,22.20
2019-05-19T14:22:03.445Z,22.30
2019-05-19T14:25:08.152Z,22.40
2019-05-19T14:28:12.573Z,22.50
2019-05-19T14:31:17.028Z,22.70
2019-05-19T14:34:21.569Z,22.90
2019-05-19T14:37:26.049Z,23.00
2019-05-19T14:40:30.484Z,23.10
2019-05-19T14:43:35.075Z,23.20
2019-05-19T14:46:39.505Z,23.40
2019-05-19T14:49:45.623Z,23.50
2019-05-19T14:52:50.132Z,23.60
2019-05-19T14:55:54.759Z,23.80
2019-05-19T14:58:59.343Z,23.90
2019-05-19T15:02:03.742Z,24.00
2019-05-19T15:05:08.301Z,24.00
2019-05-19T15:08:13.142Z,24.00
2019-05-19T15:11:18.685Z,23.90
2019-05-19T15:14:23.423Z,23.90
2019-05-19T15:17:27.982Z,23.80
2019-05-19T15:20:32.437Z,23.70
2019-05-19T15:23:38.088Z,23.60
2019-05-19T15:26:42.658Z,23.50
2019-05-19T15:29:47.167Z,23.40
2019-05-19T15:32:51.875Z,23.20
2019-05-19T15:35:56.554Z,23.10
2019-05-19T15:39:01.346Z,23.10
2019-05-19T15:42:05.741Z,23.00
2019-05-19T15:45:11.294Z,23.00
2019-05-19T15:48:17.760Z,22.90
2019-05-19T15:51:29.184Z,22.90
2019-05-19T15:54:30.057Z,22.70
2019-05-19T15:57:34.492Z,22.60
2019-05-19T16:00:39.937Z,22.30
2019-05-19T16:03:44.431Z,22.00
2019-05-19T16:06:48.856Z,21.60
2019-05-19T16:09:53.315Z,21.30
2019-05-19T16:12:58.028Z,21.10
2019-05-19T16:16:05.871Z,21.00
2019-05-19T16:19:10.479Z,20.80
2019-05-19T16:22:14.965Z,20.60
2019-05-19T16:25:19.419Z,20.50
2019-05-19T16:28:30.659Z,20.30
2019-05-19T16:31:30.095Z,20.20
2019-05-19T16:34:35.822Z,20.10
2019-05-19T16:37:41.666Z,20.00
2019-05-19T16:40:46.207Z,20.00
2019-05-19T16:43:50.706Z,19.90
2019-05-19T16:46:55.621Z,19.80
2019-05-19T16:50:00.483Z,19.80
2019-05-19T16:53:05.304Z,19.70
2019-05-19T16:56:09.723Z,19.70
2019-05-19T16:59:14.775Z,19.60
2019-05-19T17:02:22.344Z,19.60
2019-05-19T17:05:27.101Z,19.50
2019-05-19T17:08:31.687Z,19.40
2019-05-19T17:11:39.511Z,19.30
2019-05-19T17:14:48.919Z,19.20
2019-05-19T17:17:53.005Z,19.20
2019-05-19T17:20:58.094Z,19.10
2019-05-19T17:24:06.364Z,19.10
2019-05-19T17:27:12.255Z,19.10
2019-05-19T17:30:17.697Z,19.10
2019-05-19T17:33:22.552Z,19.00
2019-05-19T17:36:27.569Z,18.90
2019-05-19T17:39:32.212Z,18.80
2019-05-19T17:42:39.131Z,18.80
2019-05-19T17:45:43.920Z,18.80
2019-05-19T17:48:48.842Z,18.70
2019-05-19T17:51:53.648Z,18.60
2019-05-19T17:55:01.433Z,18.60
2019-05-19T17:58:05.973Z,18.50
2019-05-19T18:01:10.633Z,18.50
2019-05-19T18:04:15.390Z,18.40
2019-05-19T18:07:21.488Z,18.30
2019-05-19T18:10:26.861Z,18.20
2019-05-19T18:13:31.579Z,18.20
2019-05-19T18:16:36.084Z,18.10
2019-05-19T18:19:44.167Z,18.00
2019-05-19T18:22:48.741Z,17.90
2019-05-19T18:25:53.377Z,17.80
2019-05-19T18:28:57.955Z,17.80
2019-05-19T18:32:02.531Z,17.70
2019-05-19T18:35:07.046Z,17.70
2019-05-19T18:38:11.542Z,17.60
2019-05-19T18:41:20.347Z,17.50
2019-05-19T18:44:25.509Z,17.50
2019-05-19T18:47:30.014Z,17.50
2019-05-19T18:50:34.731Z,17.40
2019-05-19T18:53:41.914Z,17.40
2019-05-19T18:56:46.409Z,17.30
2019-05-19T18:59:50.968Z,17.20
2019-05-19T19:02:55.840Z,17.20
2019-05-19T19:06:00.299Z,17.10
2019-05-19T19:09:06.982Z,17.10
2019-05-19T19:12:11.624Z,17.00
2019-05-19T19:15:16.486Z,17.00
2019-05-19T19:18:22.427Z,16.90
2019-05-19T19:21:27.698Z,16.90
2019-05-19T19:24:32.388Z,16.90
2019-05-19T19:27:39.805Z,16.80
2019-05-19T19:30:44.732Z,16.70
2019-05-19T19:33:50.477Z,16.70
2019-05-19T19:36:55.676Z,16.60
2019-05-19T19:40:01.022Z,16.60
2019-05-19T19:43:06.015Z,16.50
2019-05-19T19:46:10.973Z,16.50
2019-05-19T19:49:15.499Z,16.40
2019-05-19T19:52:28.143Z,16.40
2019-05-19T19:55:33.899Z,16.30
2019-05-19T19:58:39.312Z,16.30
2019-05-19T20:01:46.962Z,16.20
2019-05-19T20:04:52.222Z,16.20
2019-05-19T20:07:57.427Z,16.10
2019-05-19T20:11:02.679Z,16.10
2019-05-19T20:14:07.741Z,16.00
2019-05-19T20:17:12.972Z,16.00
2019-05-19T20:20:17.700Z,15.90
2019-05-19T20:23:23.523Z,15.90
2019-05-19T20:26:28.515Z,15.80
2019-05-19T20:29:33.424Z,15.80
2019-05-19T20:32:38.624Z,15.70
2019-05-19T20:35:44.157Z,15.70
2019-05-19T20:38:48.894Z,15.60
2019-05-19T20:41:53.329Z,15.60
2019-05-19T20:44:59.935Z,15.50
2019-05-19T20:48:04.844Z,15.50
2019-05-19T20:51:09.284Z,15.40
2019-05-19T20:54:14.154Z,15.40
2019-05-19T20:57:18.616Z,15.40
2019-05-19T21:00:23.908Z,15.30
2019-05-19T21:03:29.359Z,15.30
2019-05-19T21:06:34.169Z,15.20
2019-05-19T21:09:38.750Z,15.20
2019-05-19T21:12:43.427Z,15.10
2019-05-19T21:15:48.236Z,15.10
2019-05-19T21:18:52.621Z,15.10
2019-05-19T21:21:57.482Z,15.00
2019-05-19T21:25:01.935Z,15.00
2019-05-19T21:28:06.397Z,14.90
2019-05-19T21:31:10.841Z,14.90
2019-05-19T21:34:15.193Z,14.90
2019-05-19T21:37:22.307Z,14.90
2019-05-19T21:40:26.685Z,14.80
2019-05-19T21:43:31.128Z,14.80
2019-05-19T21:46:36.245Z,14.70
2019-05-19T21:49:50.454Z,14.70
2019-05-19T21:52:54.766Z,14.70
2019-05-19T21:55:59.183Z,14.70
2019-05-19T21:59:03.543Z,14.80
2019-05-19T22:02:08.160Z,14.80
2019-05-19T22:05:13.112Z,14.80
2019-05-19T22:08:18.863Z,14.80
2019-05-19T22:11:23.484Z,14.80
2019-05-19T22:14:28.326Z,14.80
2019-05-19T22:17:32.969Z,14.80
2019-05-19T22:20:37.426Z,14.80
2019-05-19T22:23:42.517Z,14.80
2019-05-19T22:26:47.160Z,14.80
2019-05-19T22:29:51.611Z,14.90
2019-05-19T22:32:56.147Z,14.80
2019-05-19T22:36:00.828Z,14.90
2019-05-19T22:39:07.692Z,14.80
2019-05-19T22:42:12.071Z,14.90
2019-05-19T22:45:16.807Z,14.90
2019-05-19T22:48:22.659Z,14.80
2019-05-19T22:51:27.150Z,14.80
2019-05-19T22:54:31.460Z,14.90
2019-05-19T22:57:37.098Z,14.90
2019-05-19T23:00:41.429Z,14.90
2019-05-19T23:03:45.797Z,14.90
2019-05-19T23:06:50.287Z,14.90
2019-05-19T23:09:54.643Z,15.00
2019-05-19T23:12:58.952Z,15.00
2019-05-19T23:16:03.280Z,15.00
2019-05-19T23:19:09.270Z,15.00
2019-05-19T23:22:13.695Z,15.00
2019-05-19T23:25:18.949Z,15.00
2019-05-19T23:28:23.919Z,15.10
2019-05-19T23:31:28.255Z,15.10
2019-05-19T23:34:32.889Z,15.10
2019-05-19T23:37:37.389Z,15.10
2019-05-19T23:40:42.553Z,15.10
2019-05-19T23:43:47.622Z,15.10
2019-05-19T23:46:51.970Z,15.10
2019-05-19T23:49:57.037Z,15.20
2019-05-19T23:53:01.528Z,15.20
2019-05-19T23:56:06.788Z,15.20
2019-05-19T23:59:11.184Z,15.20
